Time;durP1;ratioP1;P1;durP2;ratioP2;P2;SDS_P1;SDS_P2;PMS_P1;PMS_P2;Temp;Humidity;BMP_temperature;BMP_pressure;BME280_temperature;BME280_humidity;BME280_pressure;Samples;Min_cycle;Max_cycle;Signal;HPM_P1;HPM_P2
2023/07/05 11:18:23;;;;;;;;;;;;;;;29.55;43.49;100389.58;1844156;76;20145;-74
2023/07/05 11:21:17;;;;;;;;;;;;;;;29.61;43.86;100390.09;1744375;79;20267;-75
2023/07/05 11:23:55;;;;;;;;;;;;;;;29.68;43.87;100386.41;1759260;79;20139;-75
2023/07/05 11:33:03;;;;;;;;;;;;;;;29.87;43.39;100380.78;1768035;79;20181;-75
2023/07/05 11:35:49;;;;;;;;;;;;;;;29.88;43.34;100386.98;1778701;78;20281;-73
2023/07/05 11:38:40;;;;;;;;;;;;;;;29.82;43.09;100382.73;1766824;79;20090;-69
2023/07/05 11:41:08;;;;;;;;;;;;;;;29.85;43.46;100380.16;1776887;79;20646;-71
2023/07/05 11:43:41;;;;;;;;;;;;;;;29.89;43.59;100383.27;1776136;79;20139;-71
2023/07/05 11:46:45;;;;;;;;;;;;;;;29.90;42.97;100379.55;1786143;79;20144;-72
2023/07/05 11:49:23;;;;;;;;;;;;;;;29.95;43.14;100387.83;1769371;79;20138;-70
2023/07/05 11:51:53;;;;;;;;;;;;;;;29.99;42.66;100387.73;1792163;79;20093;-73
2023/07/05 11:54:22;;;;;;;;;;;;;;;29.95;42.27;100384.62;1779849;79;20418;-71
2023/07/05 11:56:51;;;;;;;;;;;;;;;29.95;42.80;100385.14;1751242;80;20160;-73
2023/07/05 11:59:18;;;;;;;;;;;;;;;29.95;43.32;100382.46;1786067;79;20109;-74
2023/07/05 12:01:44;;;;;;;;;;;;;;;29.97;42.84;100385.77;1776806;79;20103;-69
2023/07/05 12:04:13;;;;;;;;;;;;;;;29.93;41.73;100379.98;1780223;79;20097;-71
2023/07/05 12:06:44;;;;;;;;;;;;;;;29.89;41.67;100381.92;1788071;79;20153;-69
2023/07/05 12:09:32;;;;;;;;;;;;;;;29.85;41.54;100381.50;1844613;76;20137;-73
2023/07/05 12:11:59;;;;;;;;;;;;;;;29.77;41.24;100377.14;1838798;76;20455;-74
2023/07/05 12:14:27;;;;;;;;;;;;;;;29.74;40.89;100374.86;1855646;77;20533;-73
2023/07/05 12:16:55;;;;;;;;;;;;;;;29.74;41.35;100380.23;1843095;76;20127;-73
2023/07/05 12:19:27;;;;;;;;;;;;;;;29.72;41.12;100375.58;1856773;76;20084;-70
2023/07/05 12:21:57;;;;;;;;;;;;;;;29.70;41.61;100371.44;1848605;76;20101;-69
2023/07/05 12:24:24;;;;;;;;;;;;;;;29.70;42.63;100374.12;1857010;76;20153;-71
2023/07/05 12:26:51;;;;;;;;;;;;;;;29.70;42.44;100370.92;1837225;76;20134;-72
2023/07/05 12:29:25;;;;;;;;;;;;;;;29.68;42.36;100371.64;1849442;76;20159;-71
2023/07/05 12:32:05;;;;;;;;;;;;;;;29.61;42.29;100367.27;1847337;77;20535;-70
2023/07/05 12:34:32;;;;;;;;;;;;;;;29.53;42.01;100366.45;1847508;76;20149;-71
2023/07/05 12:36:59;;;;;;;;;;;;;;;29.48;41.96;100362.72;1839566;75;20150;-73
2023/07/05 12:39:26;;;;;;;;;;;;;;;29.37;41.81;100361.39;1847645;76;20103;-73
2023/07/05 12:42:08;;;;;;;;;;;;;;;29.30;42.18;100361.88;1855727;75;20128;-73
2023/07/05 12:53:17;;;;;;;;;;;;;;;29.17;43.92;100364.52;1767682;79;20160;-70
2023/07/05 12:55:59;;;;;;;;;;;;;;;29.11;44.31;100357.27;1846240;76;20125;-71
2023/07/05 13:13:35;;;;;;;;;;;;;;;28.71;46.09;100349.47;1844014;76;20469;-71
2023/07/05 13:16:16;;;;;;;;;;;;;;;28.57;46.59;100355.24;1845140;76;20426;-72
2023/07/05 13:21:28;;;;;;;;;;;;;;;28.42;47.07;100354.50;1859860;76;20392;-69
2023/07/05 13:23:54;;;;;;;;;;;;;;;28.33;47.59;100354.34;1828445;76;20092;-71
2023/07/05 13:26:32;;;;;;;;;;;;;;;28.27;47.75;100356.45;1829597;77;20092;-70
2023/07/05 13:29:00;;;;;;;;;;;;;;;28.20;47.85;100361.20;1838302;75;20458;-74
2023/07/05 13:31:27;;;;;;;;;;;;;;;28.14;48.37;100357.95;1875211;76;20085;-71
2023/07/05 13:33:57;;;;;;;;;;;;;;;28.10;48.91;100355.84;1875978;75;20130;-71
2023/07/05 13:36:25;;;;;;;;;;;;;;;28.08;49.25;100345.84;1820927;77;20370;-70
2023/07/05 13:38:53;;;;;;;;;;;;;;;28.08;49.80;100341.82;1842636;76;20106;-71
2023/07/05 13:41:27;;;;;;;;;;;;;;;28.09;50.56;100341.63;1847132;76;20440;-71
2023/07/05 13:43:54;;;;;;;;;;;;;;;28.15;50.62;100344.05;1856744;76;20124;-72
2023/07/05 13:46:21;;;;;;;;;;;;;;;28.20;50.43;100346.98;1843429;76;20302;-72
2023/07/05 13:48:49;;;;;;;;;;;;;;;28.24;50.18;100341.59;1838518;77;20383;-74
2023/07/05 13:51:28;;;;;;;;;;;;;;;28.23;49.06;100337.27;1848956;76;20404;-71
2023/07/05 13:53:56;;;;;;;;;;;;;;;28.24;48.78;100342.94;1854787;75;20494;-72
2023/07/05 13:56:23;;;;;;;;;;;;;;;28.26;47.62;100342.75;1854921;76;20110;-75
